sensor_id;sensor_type;location;lat;lon;timestamp;P1;durP1;ratioP1;P2;durP2;ratioP2
5121;SDS011;2563;52.242;7.956;2023-03-01T00:00:26;19.03;;;7.57;;
5121;SDS011;2563;52.242;7.956;2023-03-01T00:02:51;24.00;;;9.13;;
5121;SDS011;2563;52.242;7.956;2023-03-01T00:05:17;24.23;;;9.40;;
5121;SDS011;2563;52.242;7.956;2023-03-01T00:07:42;15.87;;;7.97;;
5121;SDS011;2563;52.242;7.956;2023-03-01T00:10:08;18.70;;;7.77;;
5121;SDS011;2563;52.242;7.956;2023-03-01T00:12:34;25.20;;;8.63;;
5121;SDS011;2563;52.242;7.956;2023-03-01T00:14:59;23.00;;;9.00;;
5121;SDS011;2563;52.242;7.956;2023-03-01T00:17:24;17.07;;;8.60;;
5121;SDS011;2563;52.242;7.956;2023-03-01T00:19:50;17.37;;;7.63;;
5121;SDS011;2563;52.242;7.956;2023-03-01T00:22:15;26.20;;;8.67;;
5121;SDS011;2563;52.242;7.956;2023-03-01T00:24:40;17.80;;;8.70;;
5121;SDS011;2563;52.242;7.956;2023-03-01T00:27:06;20.93;;;8.60;;
5121;SDS011;2563;52.242;7.956;2023-03-01T00:29:31;15.13;;;7.20;;
5121;SDS011;2563;52.242;7.956;2023-03-01T00:31:56;17.63;;;7.90;;
5121;SDS011;2563;52.242;7.956;2023-03-01T00:34:22;23.03;;;9.77;;
5121;SDS011;2563;52.242;7.956;2023-03-01T00:36:47;21.30;;;8.53;;
5121;SDS011;2563;52.242;7.956;2023-03-01T00:39:13;14.43;;;7.43;;
5121;SDS011;2563;52.242;7.956;2023-03-01T00:41:40;21.63;;;7.97;;
5121;SDS011;2563;52.242;7.956;2023-03-01T00:44:05;22.13;;;8.70;;
5121;SDS011;2563;52.242;7.956;2023-03-01T00:46:31;17.67;;;8.10;;
5121;SDS011;2563;52.242;7.956;2023-03-01T00:48:57;19.43;;;7.80;;
5121;SDS011;2563;52.242;7.956;2023-03-01T00:51:23;31.30;;;8.47;;
5121;SDS011;2563;52.242;7.956;2023-03-01T00:53:52;22.83;;;7.90;;
5121;SDS011;2563;52.242;7.956;2023-03-01T00:56:19;13.63;;;6.53;;
5121;SDS011;2563;52.242;7.956;2023-03-01T00:58:45;20.70;;;8.00;;
5121;SDS011;2563;52.242;7.956;2023-03-01T01:01:12;19.83;;;8.00;;
5121;SDS011;2563;52.242;7.956;2023-03-01T01:03:52;21.40;;;8.37;;
5121;SDS011;2563;52.242;7.956;2023-03-01T01:06:21;21.43;;;8.20;;
5121;SDS011;2563;52.242;7.956;2023-03-01T01:08:48;17.70;;;8.37;;
5121;SDS011;2563;52.242;7.956;2023-03-01T01:11:14;21.03;;;8.57;;
5121;SDS011;2563;52.242;7.956;2023-03-01T01:13:40;24.20;;;8.97;;
5121;SDS011;2563;52.242;7.956;2023-03-01T01:16:06;18.67;;;8.10;;
5121;SDS011;2563;52.242;7.956;2023-03-01T01:18:32;25.30;;;7.43;;
5121;SDS011;2563;52.242;7.956;2023-03-01T01:21:02;16.37;;;7.60;;
5121;SDS011;2563;52.242;7.956;2023-03-01T01:23:29;22.47;;;7.47;;
5121;SDS011;2563;52.242;7.956;2023-03-01T01:25:54;16.97;;;7.43;;
5121;SDS011;2563;52.242;7.956;2023-03-01T01:28:19;19.77;;;7.73;;
5121;SDS011;2563;52.242;7.956;2023-03-01T01:30:45;23.13;;;8.60;;
5121;SDS011;2563;52.242;7.956;2023-03-01T01:33:10;22.60;;;7.87;;
5121;SDS011;2563;52.242;7.956;2023-03-01T01:35:35;20.63;;;8.40;;
5121;SDS011;2563;52.242;7.956;2023-03-01T01:38:01;17.70;;;8.23;;
5121;SDS011;2563;52.242;7.956;2023-03-01T01:40:26;19.70;;;8.47;;
5121;SDS011;2563;52.242;7.956;2023-03-01T01:42:51;12.30;;;6.70;;
5121;SDS011;2563;52.242;7.956;2023-03-01T01:48:04;23.80;;;8.40;;
5121;SDS011;2563;52.242;7.956;2023-03-01T01:50:38;13.80;;;7.13;;
5121;SDS011;2563;52.242;7.956;2023-03-01T01:53:07;23.10;;;7.77;;
5121;SDS011;2563;52.242;7.956;2023-03-01T01:55:35;13.53;;;7.30;;
5121;SDS011;2563;52.242;7.956;2023-03-01T01:58:05;17.50;;;8.33;;
5121;SDS011;2563;52.242;7.956;2023-03-01T02:00:33;16.10;;;8.03;;
5121;SDS011;2563;52.242;7.956;2023-03-01T02:03:09;21.47;;;8.27;;
5121;SDS011;2563;52.242;7.956;2023-03-01T02:08:16;22.03;;;8.17;;
5121;SDS011;2563;52.242;7.956;2023-03-01T02:10:44;18.77;;;7.20;;
5121;SDS011;2563;52.242;7.956;2023-03-01T02:13:11;19.77;;;7.83;;
5121;SDS011;2563;52.242;7.956;2023-03-01T02:15:38;17.60;;;7.13;;
5121;SDS011;2563;52.242;7.956;2023-03-01T02:18:05;15.30;;;7.53;;
5121;SDS011;2563;52.242;7.956;2023-03-01T02:23:03;16.13;;;7.00;;
5121;SDS011;2563;52.242;7.956;2023-03-01T02:25:32;17.30;;;7.13;;
5121;SDS011;2563;52.242;7.956;2023-03-01T02:30:45;16.60;;;7.07;;
5121;SDS011;2563;52.242;7.956;2023-03-01T02:33:31;19.87;;;6.87;;
5121;SDS011;2563;52.242;7.956;2023-03-01T02:36:01;17.77;;;6.97;;
5121;SDS011;2563;52.242;7.956;2023-03-01T02:38:30;15.27;;;6.90;;
5121;SDS011;2563;52.242;7.956;2023-03-01T02:40:56;14.03;;;5.83;;
5121;SDS011;2563;52.242;7.956;2023-03-01T02:43:23;20.33;;;7.73;;
5121;SDS011;2563;52.242;7.956;2023-03-01T02:45:52;18.00;;;6.70;;
5121;SDS011;2563;52.242;7.956;2023-03-01T02:48:22;16.83;;;6.67;;
5121;SDS011;2563;52.242;7.956;2023-03-01T02:56:31;13.90;;;6.50;;
5121;SDS011;2563;52.242;7.956;2023-03-01T02:58:57;17.93;;;7.53;;
5121;SDS011;2563;52.242;7.956;2023-03-01T03:01:25;17.60;;;7.30;;
5121;SDS011;2563;52.242;7.956;2023-03-01T03:04:02;15.83;;;6.33;;
5121;SDS011;2563;52.242;7.956;2023-03-01T03:06:29;10.17;;;5.67;;
5121;SDS011;2563;52.242;7.956;2023-03-01T03:08:54;22.50;;;6.20;;
5121;SDS011;2563;52.242;7.956;2023-03-01T03:11:19;15.70;;;6.60;;
5121;SDS011;2563;52.242;7.956;2023-03-01T03:13:45;16.80;;;7.30;;
5121;SDS011;2563;52.242;7.956;2023-03-01T03:16:13;11.00;;;5.60;;
5121;SDS011;2563;52.242;7.956;2023-03-01T03:18:38;15.33;;;7.17;;
5121;SDS011;2563;52.242;7.956;2023-03-01T03:21:06;14.10;;;5.83;;
5121;SDS011;2563;52.242;7.956;2023-03-01T03:23:35;17.93;;;6.50;;
5121;SDS011;2563;52.242;7.956;2023-03-01T03:26:01;15.83;;;6.60;;
5121;SDS011;2563;52.242;7.956;2023-03-01T03:28:29;14.40;;;6.97;;
5121;SDS011;2563;52.242;7.956;2023-03-01T03:30:58;14.60;;;5.80;;
5121;SDS011;2563;52.242;7.956;2023-03-01T03:33:28;20.10;;;8.43;;
5121;SDS011;2563;52.242;7.956;2023-03-01T03:35:56;22.57;;;7.30;;
5121;SDS011;2563;52.242;7.956;2023-03-01T03:38:22;17.00;;;7.27;;
5121;SDS011;2563;52.242;7.956;2023-03-01T03:40:49;21.77;;;7.60;;
5121;SDS011;2563;52.242;7.956;2023-03-01T03:43:21;17.43;;;7.27;;
5121;SDS011;2563;52.242;7.956;2023-03-01T03:45:49;15.37;;;6.40;;
5121;SDS011;2563;52.242;7.956;2023-03-01T03:48:15;15.10;;;6.70;;
5121;SDS011;2563;52.242;7.956;2023-03-01T03:50:46;15.27;;;7.10;;
5121;SDS011;2563;52.242;7.956;2023-03-01T03:53:13;12.23;;;6.00;;
5121;SDS011;2563;52.242;7.956;2023-03-01T03:55:38;14.17;;;5.80;;
5121;SDS011;2563;52.242;7.956;2023-03-01T03:58:05;15.33;;;5.90;;
5121;SDS011;2563;52.242;7.956;2023-03-01T04:00:38;21.20;;;6.67;;
5121;SDS011;2563;52.242;7.956;2023-03-01T04:03:06;23.13;;;6.80;;
5121;SDS011;2563;52.242;7.956;2023-03-01T04:05:32;14.53;;;7.57;;
5121;SDS011;2563;52.242;7.956;2023-03-01T04:07:58;19.20;;;6.37;;
5121;SDS011;2563;52.242;7.956;2023-03-01T04:10:28;30.00;;;6.87;;
5121;SDS011;2563;52.242;7.956;2023-03-01T04:13:04;11.50;;;5.00;;
5121;SDS011;2563;52.242;7.956;2023-03-01T04:15:31;15.57;;;6.47;;
5121;SDS011;2563;52.242;7.956;2023-03-01T04:17:58;14.47;;;6.23;;
5121;SDS011;2563;52.242;7.956;2023-03-01T04:20:25;19.33;;;7.67;;
5121;SDS011;2563;52.242;7.956;2023-03-01T04:23:03;18.20;;;6.13;;
5121;SDS011;2563;52.242;7.956;2023-03-01T04:25:38;17.23;;;6.83;;
5121;SDS011;2563;52.242;7.956;2023-03-01T04:28:05;14.50;;;6.20;;
5121;SDS011;2563;52.242;7.956;2023-03-01T04:30:31;17.77;;;5.90;;
5121;SDS011;2563;52.242;7.956;2023-03-01T04:33:01;24.00;;;7.23;;
5121;SDS011;2563;52.242;7.956;2023-03-01T04:35:28;15.60;;;6.13;;
5121;SDS011;2563;52.242;7.956;2023-03-01T04:37:53;19.60;;;7.67;;
5121;SDS011;2563;52.242;7.956;2023-03-01T04:40:18;15.17;;;7.40;;
5121;SDS011;2563;52.242;7.956;2023-03-01T04:42:43;23.93;;;6.07;;
5121;SDS011;2563;52.242;7.956;2023-03-01T04:45:09;12.43;;;5.80;;
5121;SDS011;2563;52.242;7.956;2023-03-01T04:47:41;14.63;;;6.20;;
5121;SDS011;2563;52.242;7.956;2023-03-01T04:50:08;16.87;;;5.90;;
5121;SDS011;2563;52.242;7.956;2023-03-01T04:52:34;19.00;;;7.30;;
5121;SDS011;2563;52.242;7.956;2023-03-01T04:55:00;18.90;;;7.33;;
5121;SDS011;2563;52.242;7.956;2023-03-01T04:57:26;15.60;;;7.20;;
5121;SDS011;2563;52.242;7.956;2023-03-01T04:59:51;16.33;;;7.13;;
5121;SDS011;2563;52.242;7.956;2023-03-01T05:02:17;17.20;;;8.33;;
5121;SDS011;2563;52.242;7.956;2023-03-01T05:04:42;17.87;;;7.87;;
5121;SDS011;2563;52.242;7.956;2023-03-01T05:07:07;17.53;;;7.63;;
5121;SDS011;2563;52.242;7.956;2023-03-01T05:09:33;16.37;;;6.70;;
5121;SDS011;2563;52.242;7.956;2023-03-01T05:11:58;14.43;;;6.53;;
5121;SDS011;2563;52.242;7.956;2023-03-01T05:14:24;13.80;;;6.73;;
5121;SDS011;2563;52.242;7.956;2023-03-01T05:16:49;19.80;;;7.43;;
5121;SDS011;2563;52.242;7.956;2023-03-01T05:19:14;19.43;;;7.20;;
5121;SDS011;2563;52.242;7.956;2023-03-01T05:21:47;21.47;;;6.47;;
5121;SDS011;2563;52.242;7.956;2023-03-01T05:24:29;24.73;;;7.07;;
5121;SDS011;2563;52.242;7.956;2023-03-01T05:26:56;12.90;;;6.70;;
5121;SDS011;2563;52.242;7.956;2023-03-01T05:29:22;13.13;;;6.90;;
5121;SDS011;2563;52.242;7.956;2023-03-01T05:31:55;19.33;;;8.13;;
5121;SDS011;2563;52.242;7.956;2023-03-01T05:34:30;12.40;;;6.37;;
5121;SDS011;2563;52.242;7.956;2023-03-01T05:36:58;19.30;;;7.37;;
5121;SDS011;2563;52.242;7.956;2023-03-01T05:39:24;13.07;;;7.00;;
5121;SDS011;2563;52.242;7.956;2023-03-01T05:41:51;15.60;;;7.30;;
5121;SDS011;2563;52.242;7.956;2023-03-01T05:44:19;15.73;;;7.57;;
5121;SDS011;2563;52.242;7.956;2023-03-01T05:46:44;20.93;;;7.70;;
5121;SDS011;2563;52.242;7.956;2023-03-01T05:49:10;16.23;;;7.40;;
5121;SDS011;2563;52.242;7.956;2023-03-01T05:51:38;16.93;;;7.43;;
5121;SDS011;2563;52.242;7.956;2023-03-01T05:54:04;14.10;;;7.40;;
5121;SDS011;2563;52.242;7.956;2023-03-01T05:56:31;17.00;;;7.17;;
5121;SDS011;2563;52.242;7.956;2023-03-01T05:58:58;17.30;;;7.57;;
5121;SDS011;2563;52.242;7.956;2023-03-01T06:01:24;16.13;;;6.80;;
5121;SDS011;2563;52.242;7.956;2023-03-01T06:03:49;18.97;;;7.80;;
5121;SDS011;2563;52.242;7.956;2023-03-01T06:06:14;18.20;;;6.93;;
5121;SDS011;2563;52.242;7.956;2023-03-01T06:08:40;21.50;;;8.37;;
5121;SDS011;2563;52.242;7.956;2023-03-01T06:11:05;17.87;;;8.20;;
5121;SDS011;2563;52.242;7.956;2023-03-01T06:13:32;16.20;;;7.20;;
5121;SDS011;2563;52.242;7.956;2023-03-01T06:15:57;21.97;;;8.10;;
5121;SDS011;2563;52.242;7.956;2023-03-01T06:18:22;22.17;;;8.33;;
5121;SDS011;2563;52.242;7.956;2023-03-01T06:20:55;22.20;;;7.30;;
5121;SDS011;2563;52.242;7.956;2023-03-01T06:23:21;19.60;;;7.77;;
5121;SDS011;2563;52.242;7.956;2023-03-01T06:25:47;25.23;;;5.97;;
5121;SDS011;2563;52.242;7.956;2023-03-01T06:28:12;11.50;;;6.10;;
5121;SDS011;2563;52.242;7.956;2023-03-01T06:30:37;22.33;;;6.40;;
5121;SDS011;2563;52.242;7.956;2023-03-01T06:33:03;17.03;;;7.10;;
5121;SDS011;2563;52.242;7.956;2023-03-01T06:35:28;13.90;;;7.13;;
5121;SDS011;2563;52.242;7.956;2023-03-01T06:37:55;14.63;;;6.93;;
5121;SDS011;2563;52.242;7.956;2023-03-01T06:40:20;13.43;;;6.70;;
5121;SDS011;2563;52.242;7.956;2023-03-01T06:42:50;16.70;;;7.30;;
5121;SDS011;2563;52.242;7.956;2023-03-01T06:45:16;22.73;;;8.10;;
5121;SDS011;2563;52.242;7.956;2023-03-01T06:47:43;19.63;;;7.63;;
5121;SDS011;2563;52.242;7.956;2023-03-01T06:50:08;21.30;;;8.90;;
5121;SDS011;2563;52.242;7.956;2023-03-01T06:52:34;26.07;;;9.07;;
5121;SDS011;2563;52.242;7.956;2023-03-01T06:55:00;17.07;;;7.90;;
5121;SDS011;2563;52.242;7.956;2023-03-01T06:57:26;22.37;;;8.70;;
5121;SDS011;2563;52.242;7.956;2023-03-01T06:59:52;23.53;;;8.90;;
5121;SDS011;2563;52.242;7.956;2023-03-01T07:02:17;16.90;;;8.00;;
5121;SDS011;2563;52.242;7.956;2023-03-01T07:04:43;16.27;;;7.70;;
5121;SDS011;2563;52.242;7.956;2023-03-01T07:07:08;17.37;;;7.70;;
5121;SDS011;2563;52.242;7.956;2023-03-01T07:09:34;17.77;;;7.10;;
5121;SDS011;2563;52.242;7.956;2023-03-01T07:12:00;17.03;;;7.03;;
5121;SDS011;2563;52.242;7.956;2023-03-01T07:14:26;19.30;;;8.10;;
5121;SDS011;2563;52.242;7.956;2023-03-01T07:16:54;15.73;;;7.87;;
5121;SDS011;2563;52.242;7.956;2023-03-01T07:19:20;18.90;;;7.97;;
5121;SDS011;2563;52.242;7.956;2023-03-01T07:21:46;24.23;;;9.73;;
5121;SDS011;2563;52.242;7.956;2023-03-01T07:24:12;24.47;;;9.50;;
5121;SDS011;2563;52.242;7.956;2023-03-01T07:26:37;33.13;;;9.40;;
5121;SDS011;2563;52.242;7.956;2023-03-01T07:29:04;23.13;;;8.97;;
5121;SDS011;2563;52.242;7.956;2023-03-01T07:31:30;25.93;;;9.57;;
5121;SDS011;2563;52.242;7.956;2023-03-01T07:33:56;26.13;;;10.00;;
5121;SDS011;2563;52.242;7.956;2023-03-01T07:36:22;27.23;;;11.17;;
5121;SDS011;2563;52.242;7.956;2023-03-01T07:38:47;25.60;;;9.63;;
5121;SDS011;2563;52.242;7.956;2023-03-01T07:41:13;26.40;;;9.17;;
5121;SDS011;2563;52.242;7.956;2023-03-01T07:43:39;24.20;;;10.17;;
5121;SDS011;2563;52.242;7.956;2023-03-01T07:46:05;18.87;;;9.23;;
5121;SDS011;2563;52.242;7.956;2023-03-01T07:48:31;24.00;;;9.07;;
5121;SDS011;2563;52.242;7.956;2023-03-01T07:50:58;20.43;;;8.73;;
5121;SDS011;2563;52.242;7.956;2023-03-01T07:53:24;26.80;;;10.57;;
5121;SDS011;2563;52.242;7.956;2023-03-01T07:55:50;27.43;;;10.53;;
5121;SDS011;2563;52.242;7.956;2023-03-01T07:58:24;32.83;;;11.90;;
5121;SDS011;2563;52.242;7.956;2023-03-01T08:00:50;26.73;;;12.53;;
5121;SDS011;2563;52.242;7.956;2023-03-01T08:03:15;25.23;;;10.33;;
5121;SDS011;2563;52.242;7.956;2023-03-01T08:05:41;18.20;;;9.10;;
5121;SDS011;2563;52.242;7.956;2023-03-01T08:08:06;23.43;;;10.20;;
5121;SDS011;2563;52.242;7.956;2023-03-01T08:10:31;23.63;;;10.60;;
5121;SDS011;2563;52.242;7.956;2023-03-01T08:12:57;23.67;;;10.83;;
5121;SDS011;2563;52.242;7.956;2023-03-01T08:15:22;21.77;;;9.53;;
5121;SDS011;2563;52.242;7.956;2023-03-01T08:17:48;27.90;;;9.63;;
5121;SDS011;2563;52.242;7.956;2023-03-01T08:20:14;27.23;;;10.13;;
5121;SDS011;2563;52.242;7.956;2023-03-01T08:22:39;23.47;;;11.00;;
5121;SDS011;2563;52.242;7.956;2023-03-01T08:25:05;21.27;;;9.93;;
5121;SDS011;2563;52.242;7.956;2023-03-01T08:27:30;24.87;;;11.80;;
5121;SDS011;2563;52.242;7.956;2023-03-01T08:29:56;26.60;;;11.77;;
5121;SDS011;2563;52.242;7.956;2023-03-01T08:32:21;21.43;;;10.47;;
5121;SDS011;2563;52.242;7.956;2023-03-01T08:34:47;18.50;;;9.23;;
5121;SDS011;2563;52.242;7.956;2023-03-01T08:37:12;21.03;;;10.07;;
5121;SDS011;2563;52.242;7.956;2023-03-01T08:39:37;26.10;;;11.73;;
5121;SDS011;2563;52.242;7.956;2023-03-01T08:42:03;20.57;;;10.00;;
5121;SDS011;2563;52.242;7.956;2023-03-01T08:44:28;21.80;;;9.30;;
5121;SDS011;2563;52.242;7.956;2023-03-01T08:46:54;19.43;;;9.40;;
5121;SDS011;2563;52.242;7.956;2023-03-01T08:49:20;20.50;;;9.43;;
5121;SDS011;2563;52.242;7.956;2023-03-01T08:51:46;22.83;;;9.60;;
5121;SDS011;2563;52.242;7.956;2023-03-01T08:54:14;20.73;;;9.77;;
5121;SDS011;2563;52.242;7.956;2023-03-01T08:56:41;23.47;;;9.87;;
5121;SDS011;2563;52.242;7.956;2023-03-01T08:59:06;20.53;;;9.23;;
5121;SDS011;2563;52.242;7.956;2023-03-01T09:01:32;19.63;;;9.87;;
5121;SDS011;2563;52.242;7.956;2023-03-01T09:03:58;20.13;;;10.10;;
5121;SDS011;2563;52.242;7.956;2023-03-01T09:06:23;24.20;;;9.83;;
5121;SDS011;2563;52.242;7.956;2023-03-01T09:08:49;16.17;;;8.83;;
5121;SDS011;2563;52.242;7.956;2023-03-01T09:11:16;19.17;;;9.20;;
5121;SDS011;2563;52.242;7.956;2023-03-01T09:13:45;14.07;;;7.80;;
5121;SDS011;2563;52.242;7.956;2023-03-01T09:16:12;15.43;;;8.00;;
5121;SDS011;2563;52.242;7.956;2023-03-01T09:18:39;24.40;;;7.77;;
5121;SDS011;2563;52.242;7.956;2023-03-01T09:21:06;19.47;;;8.07;;
5121;SDS011;2563;52.242;7.956;2023-03-01T09:23:36;14.93;;;7.97;;
5121;SDS011;2563;52.242;7.956;2023-03-01T09:26:18;14.83;;;7.67;;
5121;SDS011;2563;52.242;7.956;2023-03-01T09:28:47;16.50;;;7.30;;
5121;SDS011;2563;52.242;7.956;2023-03-01T09:31:14;14.67;;;8.10;;
5121;SDS011;2563;52.242;7.956;2023-03-01T09:33:41;16.20;;;6.87;;
5121;SDS011;2563;52.242;7.956;2023-03-01T09:36:07;15.80;;;7.57;;
5121;SDS011;2563;52.242;7.956;2023-03-01T09:38:36;15.20;;;7.40;;
5121;SDS011;2563;52.242;7.956;2023-03-01T09:41:02;14.93;;;7.40;;
5121;SDS011;2563;52.242;7.956;2023-03-01T09:45:55;15.23;;;6.97;;
5121;SDS011;2563;52.242;7.956;2023-03-01T09:48:27;13.57;;;6.90;;
5121;SDS011;2563;52.242;7.956;2023-03-01T09:50:56;17.37;;;7.30;;
5121;SDS011;2563;52.242;7.956;2023-03-01T09:53:23;12.53;;;6.30;;
5121;SDS011;2563;52.242;7.956;2023-03-01T10:01:22;7.40;;;3.97;;
5121;SDS011;2563;52.242;7.956;2023-03-01T10:06:28;9.73;;;4.47;;
5121;SDS011;2563;52.242;7.956;2023-03-01T10:08:58;9.67;;;4.37;;
5121;SDS011;2563;52.242;7.956;2023-03-01T10:11:31;10.67;;;4.97;;
5121;SDS011;2563;52.242;7.956;2023-03-01T10:19:11;9.03;;;4.40;;
5121;SDS011;2563;52.242;7.956;2023-03-01T10:21:41;7.60;;;4.43;;
5121;SDS011;2563;52.242;7.956;2023-03-01T10:24:10;9.37;;;4.70;;
5121;SDS011;2563;52.242;7.956;2023-03-01T10:27:01;11.13;;;5.20;;
5121;SDS011;2563;52.242;7.956;2023-03-01T10:29:49;8.03;;;4.20;;
5121;SDS011;2563;52.242;7.956;2023-03-01T10:32:17;9.20;;;4.67;;
5121;SDS011;2563;52.242;7.956;2023-03-01T10:34:43;7.70;;;3.90;;
5121;SDS011;2563;52.242;7.956;2023-03-01T10:37:16;9.37;;;4.27;;
5121;SDS011;2563;52.242;7.956;2023-03-01T10:40:09;7.50;;;3.90;;
5121;SDS011;2563;52.242;7.956;2023-03-01T10:48:16;8.07;;;3.83;;
5121;SDS011;2563;52.242;7.956;2023-03-01T10:51:05;10.80;;;4.53;;
5121;SDS011;2563;52.242;7.956;2023-03-01T10:56:03;8.00;;;4.43;;
5121;SDS011;2563;52.242;7.956;2023-03-01T10:58:31;20.63;;;4.30;;
5121;SDS011;2563;52.242;7.956;2023-03-01T11:01:02;15.07;;;5.20;;
5121;SDS011;2563;52.242;7.956;2023-03-01T11:03:30;8.17;;;4.50;;
5121;SDS011;2563;52.242;7.956;2023-03-01T11:06:04;6.97;;;3.93;;
5121;SDS011;2563;52.242;7.956;2023-03-01T11:08:37;10.50;;;4.57;;
5121;SDS011;2563;52.242;7.956;2023-03-01T11:13:30;8.90;;;4.60;;
5121;SDS011;2563;52.242;7.956;2023-03-01T11:16:00;7.87;;;4.33;;
5121;SDS011;2563;52.242;7.956;2023-03-01T11:18:28;11.87;;;5.37;;
5121;SDS011;2563;52.242;7.956;2023-03-01T11:20:55;8.20;;;4.57;;
5121;SDS011;2563;52.242;7.956;2023-03-01T11:23:23;9.10;;;4.87;;
5121;SDS011;2563;52.242;7.956;2023-03-01T11:25:57;9.17;;;5.10;;
5121;SDS011;2563;52.242;7.956;2023-03-01T11:28:25;8.83;;;4.90;;
5121;SDS011;2563;52.242;7.956;2023-03-01T11:31:04;9.10;;;5.10;;
5121;SDS011;2563;52.242;7.956;2023-03-01T11:38:51;7.97;;;4.73;;
5121;SDS011;2563;52.242;7.956;2023-03-01T11:41:32;15.40;;;6.03;;
5121;SDS011;2563;52.242;7.956;2023-03-01T11:44:02;9.07;;;4.73;;
5121;SDS011;2563;52.242;7.956;2023-03-01T12:08:14;7.53;;;4.47;;
5121;SDS011;2563;52.242;7.956;2023-03-01T12:16:38;8.53;;;4.40;;
5121;SDS011;2563;52.242;7.956;2023-03-01T12:25:07;7.47;;;4.67;;
5121;SDS011;2563;52.242;7.956;2023-03-01T12:27:49;9.37;;;4.67;;
5121;SDS011;2563;52.242;7.956;2023-03-01T12:30:19;12.00;;;4.70;;
5121;SDS011;2563;52.242;7.956;2023-03-01T12:55:06;9.40;;;4.40;;
5121;SDS011;2563;52.242;7.956;2023-03-01T12:57:45;8.53;;;4.10;;
5121;SDS011;2563;52.242;7.956;2023-03-01T13:00:27;6.20;;;3.67;;
5121;SDS011;2563;52.242;7.956;2023-03-01T13:05:42;9.60;;;3.83;;
5121;SDS011;2563;52.242;7.956;2023-03-01T13:08:22;9.50;;;3.63;;
5121;SDS011;2563;52.242;7.956;2023-03-01T13:11:40;7.40;;;4.13;;
5121;SDS011;2563;52.242;7.956;2023-03-01T13:13:45;8.33;;;4.10;;
5121;SDS011;2563;52.242;7.956;2023-03-01T13:16:38;7.13;;;3.90;;
5121;SDS011;2563;52.242;7.956;2023-03-01T13:21:41;9.17;;;4.13;;
5121;SDS011;2563;52.242;7.956;2023-03-01T13:29:31;9.10;;;4.40;;
5121;SDS011;2563;52.242;7.956;2023-03-01T13:34:56;5.60;;;3.30;;
5121;SDS011;2563;52.242;7.956;2023-03-01T13:37:41;6.70;;;3.70;;
5121;SDS011;2563;52.242;7.956;2023-03-01T13:42:42;8.77;;;3.20;;
5121;SDS011;2563;52.242;7.956;2023-03-01T13:45:24;6.00;;;3.70;;
5121;SDS011;2563;52.242;7.956;2023-03-01T13:48:25;9.17;;;3.73;;
5121;SDS011;2563;52.242;7.956;2023-03-01T13:51:02;8.20;;;4.03;;
5121;SDS011;2563;52.242;7.956;2023-03-01T13:53:47;7.13;;;4.03;;
5121;SDS011;2563;52.242;7.956;2023-03-01T13:56:13;8.27;;;4.27;;
5121;SDS011;2563;52.242;7.956;2023-03-01T14:01:21;6.30;;;3.47;;
5121;SDS011;2563;52.242;7.956;2023-03-01T14:03:47;4.90;;;2.80;;
5121;SDS011;2563;52.242;7.956;2023-03-01T14:06:13;4.73;;;2.97;;
5121;SDS011;2563;52.242;7.956;2023-03-01T14:08:42;4.57;;;3.10;;
5121;SDS011;2563;52.242;7.956;2023-03-01T14:21:58;3.83;;;2.60;;
5121;SDS011;2563;52.242;7.956;2023-03-01T14:24:27;5.90;;;2.90;;
5121;SDS011;2563;52.242;7.956;2023-03-01T14:26:52;4.90;;;3.30;;
5121;SDS011;2563;52.242;7.956;2023-03-01T14:30:20;5.57;;;2.93;;
5121;SDS011;2563;52.242;7.956;2023-03-01T14:32:25;5.10;;;2.70;;
5121;SDS011;2563;52.242;7.956;2023-03-01T14:34:51;5.80;;;2.97;;
5121;SDS011;2563;52.242;7.956;2023-03-01T14:40:25;5.30;;;2.87;;
5121;SDS011;2563;52.242;7.956;2023-03-01T14:42:57;4.10;;;2.40;;
5121;SDS011;2563;52.242;7.956;2023-03-01T14:45:24;5.17;;;2.50;;
5121;SDS011;2563;52.242;7.956;2023-03-01T14:47:51;6.67;;;2.90;;
5121;SDS011;2563;52.242;7.956;2023-03-01T14:52:46;6.47;;;3.40;;
5121;SDS011;2563;52.242;7.956;2023-03-01T14:55:17;5.73;;;3.00;;
5121;SDS011;2563;52.242;7.956;2023-03-01T14:57:45;5.73;;;3.37;;
5121;SDS011;2563;52.242;7.956;2023-03-01T15:00:17;9.13;;;3.30;;
5121;SDS011;2563;52.242;7.956;2023-03-01T15:02:43;7.30;;;3.20;;
5121;SDS011;2563;52.242;7.956;2023-03-01T15:05:13;6.07;;;3.20;;
5121;SDS011;2563;52.242;7.956;2023-03-01T15:07:40;7.20;;;3.90;;
5121;SDS011;2563;52.242;7.956;2023-03-01T15:10:21;6.60;;;4.00;;
5121;SDS011;2563;52.242;7.956;2023-03-01T15:12:49;6.30;;;3.53;;
5121;SDS011;2563;52.242;7.956;2023-03-01T15:17:50;7.60;;;2.90;;
5121;SDS011;2563;52.242;7.956;2023-03-01T15:20:20;9.67;;;4.00;;
5121;SDS011;2563;52.242;7.956;2023-03-01T15:22:50;7.93;;;3.83;;
5121;SDS011;2563;52.242;7.956;2023-03-01T15:25:17;6.10;;;3.30;;
5121;SDS011;2563;52.242;7.956;2023-03-01T15:27:46;5.57;;;3.20;;
5121;SDS011;2563;52.242;7.956;2023-03-01T15:32:47;9.73;;;5.70;;
5121;SDS011;2563;52.242;7.956;2023-03-01T15:44:14;6.53;;;2.97;;
5121;SDS011;2563;52.242;7.956;2023-03-01T15:46:51;7.17;;;2.73;;
5121;SDS011;2563;52.242;7.956;2023-03-01T15:52:01;5.93;;;2.50;;
5121;SDS011;2563;52.242;7.956;2023-03-01T15:54:27;8.00;;;2.70;;
5121;SDS011;2563;52.242;7.956;2023-03-01T15:56:54;4.87;;;2.43;;
5121;SDS011;2563;52.242;7.956;2023-03-01T15:59:20;6.00;;;3.00;;
5121;SDS011;2563;52.242;7.956;2023-03-01T16:01:47;6.80;;;2.60;;
5121;SDS011;2563;52.242;7.956;2023-03-01T16:04:14;4.13;;;2.23;;
5121;SDS011;2563;52.242;7.956;2023-03-01T16:06:53;6.17;;;3.00;;
5121;SDS011;2563;52.242;7.956;2023-03-01T16:09:23;5.53;;;2.57;;
5121;SDS011;2563;52.242;7.956;2023-03-01T16:11:50;4.70;;;2.33;;
5121;SDS011;2563;52.242;7.956;2023-03-01T16:14:16;6.77;;;2.83;;
5121;SDS011;2563;52.242;7.956;2023-03-01T16:16:42;6.57;;;2.70;;
5121;SDS011;2563;52.242;7.956;2023-03-01T16:19:09;6.37;;;2.60;;
5121;SDS011;2563;52.242;7.956;2023-03-01T16:21:35;5.10;;;2.73;;
5121;SDS011;2563;52.242;7.956;2023-03-01T16:24:00;6.10;;;2.90;;
5121;SDS011;2563;52.242;7.956;2023-03-01T16:26:26;5.67;;;3.27;;
5121;SDS011;2563;52.242;7.956;2023-03-01T16:28:53;7.77;;;3.10;;
5121;SDS011;2563;52.242;7.956;2023-03-01T16:31:21;7.63;;;2.87;;
5121;SDS011;2563;52.242;7.956;2023-03-01T16:33:47;5.40;;;3.20;;
5121;SDS011;2563;52.242;7.956;2023-03-01T16:36:15;5.90;;;3.00;;
5121;SDS011;2563;52.242;7.956;2023-03-01T16:38:43;6.03;;;3.13;;
5121;SDS011;2563;52.242;7.956;2023-03-01T16:41:13;6.73;;;3.30;;
5121;SDS011;2563;52.242;7.956;2023-03-01T16:43:39;6.73;;;3.23;;
5121;SDS011;2563;52.242;7.956;2023-03-01T16:46:12;5.40;;;3.03;;
5121;SDS011;2563;52.242;7.956;2023-03-01T16:48:40;5.10;;;3.00;;
5121;SDS011;2563;52.242;7.956;2023-03-01T16:51:06;4.77;;;2.80;;
5121;SDS011;2563;52.242;7.956;2023-03-01T16:53:33;5.10;;;2.83;;
5121;SDS011;2563;52.242;7.956;2023-03-01T16:56:01;5.70;;;3.00;;
5121;SDS011;2563;52.242;7.956;2023-03-01T16:58:28;6.47;;;2.80;;
5121;SDS011;2563;52.242;7.956;2023-03-01T17:00:53;6.23;;;2.87;;
5121;SDS011;2563;52.242;7.956;2023-03-01T17:03:21;6.77;;;3.37;;
5121;SDS011;2563;52.242;7.956;2023-03-01T17:05:46;5.10;;;2.80;;
5121;SDS011;2563;52.242;7.956;2023-03-01T17:08:12;5.77;;;3.70;;
5121;SDS011;2563;52.242;7.956;2023-03-01T17:10:38;9.00;;;3.20;;
5121;SDS011;2563;52.242;7.956;2023-03-01T17:13:03;11.90;;;6.03;;
5121;SDS011;2563;52.242;7.956;2023-03-01T17:15:29;14.30;;;6.93;;
5121;SDS011;2563;52.242;7.956;2023-03-01T17:17:54;24.33;;;9.07;;
5121;SDS011;2563;52.242;7.956;2023-03-01T17:20:20;11.47;;;5.13;;
5121;SDS011;2563;52.242;7.956;2023-03-01T17:22:45;9.47;;;4.47;;
5121;SDS011;2563;52.242;7.956;2023-03-01T17:25:11;5.50;;;3.10;;
5121;SDS011;2563;52.242;7.956;2023-03-01T17:27:37;7.43;;;3.63;;
5121;SDS011;2563;52.242;7.956;2023-03-01T17:30:05;9.67;;;3.50;;
5121;SDS011;2563;52.242;7.956;2023-03-01T17:32:33;8.93;;;4.13;;
5121;SDS011;2563;52.242;7.956;2023-03-01T17:34:58;11.40;;;5.67;;
5121;SDS011;2563;52.242;7.956;2023-03-01T17:37:23;17.83;;;9.47;;
5121;SDS011;2563;52.242;7.956;2023-03-01T17:39:49;12.70;;;7.20;;
5121;SDS011;2563;52.242;7.956;2023-03-01T17:42:14;10.07;;;5.33;;
5121;SDS011;2563;52.242;7.956;2023-03-01T17:44:40;10.87;;;5.23;;
5121;SDS011;2563;52.242;7.956;2023-03-01T17:47:05;9.13;;;4.80;;